Time;durP1;ratioP1;P1;durP2;ratioP2;P2;SDS_P1;SDS_P2;PMS_P1;PMS_P2;Temp;Humidity;BMP_temperature;BMP_pressure;BME280_temperature;BME280_humidity;BME280_pressure;Samples;Min_cycle;Max_cycle;Signal;HPM_P1;HPM_P2
2022/11/06 00:00:05;;;;;;;7.07;4.25;;;10.30;99.90;;;;;;5042430;28;20045;-77
2022/11/06 00:02:30;;;;;;;10.85;6.07;;;10.30;99.90;;;;;;5044077;28;20068;-76
2022/11/06 00:06:46;;;;;;;5.55;3.78;;;10.30;99.90;;;;;;5044917;28;20040;-76
2022/11/06 00:07:45;;;;;;;5.38;4.60;;;10.20;99.90;;;;;;5044961;28;20051;-76
2022/11/06 00:10:12;;;;;;;6.90;3.60;;;10.20;99.90;;;;;;5044479;28;20044;-76
2022/11/06 00:12:37;;;;;;;10.95;5.13;;;10.20;99.90;;;;;;5042981;28;20044;-76
2022/11/06 00:15:03;;;;;;;7.32;4.03;;;10.20;99.90;;;;;;5043388;28;20052;-76
2022/11/06 00:17:29;;;;;;;12.68;4.78;;;10.30;99.90;;;;;;5043800;28;20048;-76
2022/11/06 00:19:54;;;;;;;9.00;5.00;;;10.20;99.90;;;;;;5026591;28;20748;-76
2022/11/06 00:22:20;;;;;;;5.20;3.35;;;10.20;99.90;;;;;;5043558;28;20047;-77
2022/11/06 00:24:45;;;;;;;5.90;3.90;;;10.30;99.90;;;;;;5043310;28;20041;-77
2022/11/06 00:27:11;;;;;;;8.68;4.30;;;10.30;99.90;;;;;;5042076;28;20052;-76
2022/11/06 00:29:36;;;;;;;5.07;4.57;;;10.20;99.90;;;;;;5044585;28;20462;-76
2022/11/06 00:32:02;;;;;;;6.88;5.55;;;10.20;99.90;;;;;;5042868;28;20546;-76
2022/11/06 00:34:28;;;;;;;5.50;4.30;;;10.20;99.90;;;;;;5043362;28;20119;-76
2022/11/06 00:36:53;;;;;;;6.93;4.05;;;10.30;99.90;;;;;;5043972;28;20103;-77
2022/11/06 00:39:19;;;;;;;5.70;3.90;;;10.20;99.90;;;;;;5026654;28;20043;-76
2022/11/06 00:41:44;;;;;;;11.73;4.55;;;10.20;99.90;;;;;;5042134;28;20450;-76
2022/11/06 00:44:10;;;;;;;4.50;4.10;;;10.20;99.90;;;;;;5043895;28;20122;-77
2022/11/06 00:46:36;;;;;;;4.40;3.65;;;10.30;99.90;;;;;;5059692;28;20127;-76
2022/11/06 00:49:02;;;;;;;17.73;4.93;;;10.30;99.90;;;;;;5043395;28;20075;-76
2022/11/06 00:51:34;;;;;;;11.65;4.65;;;10.30;99.90;;;;;;5042808;28;20260;-76
2022/11/06 00:54:03;;;;;;;7.57;4.85;;;10.30;99.90;;;;;;5025260;28;20044;-76
2022/11/06 00:56:30;;;;;;;4.47;3.05;;;10.30;99.90;;;;;;5042993;28;20049;-78
2022/11/06 00:58:58;;;;;;;10.13;4.57;;;10.30;99.90;;;;;;5042361;28;20048;-76
2022/11/06 01:01:35;;;;;;;6.20;4.88;;;10.30;99.90;;;;;;5043669;28;20033;-77
2022/11/06 01:04:13;;;;;;;6.40;4.63;;;10.30;99.90;;;;;;5032972;28;20049;-76
2022/11/06 01:06:44;;;;;;;6.75;5.55;;;10.30;99.90;;;;;;5026042;28;20515;-77
2022/11/06 01:09:13;;;;;;;7.30;4.05;;;10.30;99.90;;;;;;5043477;28;20131;-76
2022/11/06 01:11:42;;;;;;;7.43;4.15;;;10.30;99.90;;;;;;5041467;28;20045;-76
2022/11/06 01:14:11;;;;;;;14.50;4.35;;;10.30;99.90;;;;;;5043916;28;20037;-77
2022/11/06 01:16:37;;;;;;;6.55;4.70;;;10.30;99.90;;;;;;5042667;28;20041;-76
2022/11/06 01:19:03;;;;;;;7.72;4.88;;;10.30;99.90;;;;;;5043364;28;20045;-76
2022/11/06 01:21:31;;;;;;;6.55;4.53;;;10.30;99.90;;;;;;5042014;28;20045;-76
2022/11/06 01:23:59;;;;;;;12.38;4.30;;;10.40;99.90;;;;;;5025793;28;20103;-76
2022/11/06 01:26:26;;;;;;;14.48;4.40;;;10.30;99.90;;;;;;5041862;28;20048;-77
2022/11/06 01:28:52;;;;;;;7.15;4.63;;;10.30;99.90;;;;;;5043345;28;20446;-77
2022/11/06 01:31:21;;;;;;;8.50;5.00;;;10.30;99.90;;;;;;5043646;28;20033;-76
2022/11/06 01:33:47;;;;;;;13.38;5.15;;;10.40;99.90;;;;;;5043110;28;20072;-76
2022/11/06 01:36:16;;;;;;;5.68;4.20;;;10.40;99.90;;;;;;5042106;28;20036;-77
2022/11/06 01:38:43;;;;;;;9.65;4.43;;;10.40;99.90;;;;;;5043146;28;20124;-77
2022/11/06 01:41:12;;;;;;;10.23;5.45;;;10.40;99.90;;;;;;5042722;28;20399;-76
2022/11/06 01:43:45;;;;;;;9.48;3.50;;;10.40;99.90;;;;;;5043758;28;20068;-76
2022/11/06 01:46:11;;;;;;;6.53;4.90;;;10.30;99.90;;;;;;5042491;28;20084;-77
2022/11/06 01:48:38;;;;;;;11.43;5.50;;;10.40;99.90;;;;;;5043604;28;20073;-76
2022/11/06 01:51:05;;;;;;;10.38;4.90;;;10.40;99.90;;;;;;5042485;28;20671;-77
2022/11/06 01:53:31;;;;;;;7.10;5.43;;;10.40;99.90;;;;;;5043417;28;21091;-76
2022/11/06 01:56:01;;;;;;;8.13;5.80;;;10.30;99.90;;;;;;5042784;28;20047;-76
2022/11/06 01:58:30;;;;;;;7.63;5.13;;;10.40;99.90;;;;;;5025734;28;20049;-77
2022/11/06 02:00:56;;;;;;;10.95;4.65;;;10.40;99.90;;;;;;5041325;28;20041;-77
2022/11/06 02:03:22;;;;;;;6.13;4.55;;;10.40;99.90;;;;;;5041680;28;20037;-77
2022/11/06 02:05:47;;;;;;;9.15;5.28;;;10.40;99.90;;;;;;5043668;28;20044;-77
2022/11/06 02:08:16;;;;;;;9.98;6.32;;;10.40;99.90;;;;;;5042454;28;20033;-76
2022/11/06 02:13:32;;;;;;;11.55;5.82;;;10.40;99.90;;;;;;4981090;28;20495;-76
2022/11/06 02:16:23;;;;;;;11.90;7.05;;;10.40;99.90;;;;;;4986865;28;20516;-76
2022/11/06 02:19:29;;;;;;;9.95;6.55;;;10.40;99.90;;;;;;4973789;28;20459;-76
2022/11/06 02:22:09;;;;;;;9.82;5.03;;;10.40;99.90;;;;;;4986434;28;20084;-76
2022/11/06 02:24:58;;;;;;;10.45;6.13;;;10.40;99.90;;;;;;4986052;28;20050;-76
2022/11/06 02:27:27;;;;;;;9.05;7.38;;;10.40;99.90;;;;;;4985579;28;20443;-76
2022/11/06 02:30:02;;;;;;;7.97;5.25;;;10.40;99.90;;;;;;4985898;28;20039;-76
2022/11/06 02:32:55;;;;;;;9.38;5.38;;;10.40;99.90;;;;;;4965418;28;20064;-77
2022/11/06 02:35:30;;;;;;;7.10;6.03;;;10.40;99.90;;;;;;4986304;28;20050;-76
2022/11/06 02:38:12;;;;;;;7.93;5.45;;;10.40;99.90;;;;;;4985964;28;20046;-77
2022/11/06 02:40:54;;;;;;;6.82;6.05;;;10.40;99.90;;;;;;4987505;28;20034;-77
2022/11/06 02:43:27;;;;;;;10.00;5.60;;;10.40;99.90;;;;;;4987444;28;20045;-77
2022/11/06 02:46:02;;;;;;;10.35;6.60;;;10.40;99.90;;;;;;4955041;28;20428;-77
2022/11/06 02:48:31;;;;;;;9.77;6.13;;;10.40;99.90;;;;;;4987870;28;20042;-76
2022/11/06 02:51:00;;;;;;;8.32;5.75;;;10.40;99.90;;;;;;4986846;28;20092;-76
2022/11/06 02:53:26;;;;;;;9.15;6.65;;;10.40;99.90;;;;;;4985701;28;20108;-77
2022/11/06 02:56:01;;;;;;;8.75;5.00;;;10.40;99.90;;;;;;4984951;28;20042;-77
2022/11/06 02:58:49;;;;;;;13.93;5.43;;;10.40;99.90;;;;;;4985037;28;20157;-76
2022/11/06 03:01:41;;;;;;;6.68;5.75;;;10.50;99.90;;;;;;4985999;28;20108;-76
2022/11/06 03:04:15;;;;;;;14.93;6.55;;;10.50;99.90;;;;;;4980378;28;20061;-76
2022/11/06 03:07:24;;;;;;;8.07;5.72;;;10.50;99.90;;;;;;4985550;28;20050;-76
2022/11/06 03:09:49;;;;;;;8.15;6.30;;;10.50;99.90;;;;;;4969343;28;20073;-77
2022/11/06 03:12:26;;;;;;;17.02;5.95;;;10.50;99.90;;;;;;4985057;28;20675;-76
2022/11/06 03:15:21;;;;;;;8.85;5.78;;;10.40;99.90;;;;;;4985324;28;20507;-77
2022/11/06 03:18:05;;;;;;;8.32;6.28;;;10.50;99.90;;;;;;4985591;28;20120;-76
2022/11/06 03:20:53;;;;;;;7.63;5.32;;;10.50;99.90;;;;;;4985502;28;20069;-76
2022/11/06 03:23:31;;;;;;;6.80;5.18;;;10.50;99.90;;;;;;4985932;28;20141;-77
2022/11/06 03:26:18;;;;;;;7.18;5.95;;;10.50;99.90;;;;;;4975181;28;20054;-77
2022/11/06 03:28:54;;;;;;;7.85;6.20;;;10.50;99.90;;;;;;4978525;28;20056;-76
2022/11/06 03:31:28;;;;;;;7.40;5.95;;;10.50;99.90;;;;;;4985625;28;20054;-77
2022/11/06 03:34:00;;;;;;;6.70;5.35;;;10.50;99.90;;;;;;4985041;28;20058;-77
2022/11/06 03:36:32;;;;;;;8.10;6.32;;;10.50;99.90;;;;;;4986112;28;20050;-77
2022/11/06 03:39:02;;;;;;;25.65;6.15;;;10.50;99.90;;;;;;4984916;28;20053;-76
2022/11/06 03:41:42;;;;;;;6.50;5.00;;;10.50;99.90;;;;;;4985704;28;20042;-77
2022/11/06 03:44:13;;;;;;;8.45;6.05;;;10.50;99.90;;;;;;4985847;28;20084;-76
2022/11/06 03:46:44;;;;;;;12.40;6.47;;;10.50;99.90;;;;;;4984796;28;20137;-76
2022/11/06 03:49:16;;;;;;;8.73;6.20;;;10.50;99.90;;;;;;4974735;28;20042;-76
2022/11/06 03:51:48;;;;;;;;;;;10.50;99.90;;;;;;4976087;28;20129;-76
2022/11/06 03:54:24;;;;;;;6.22;5.40;;;10.50;99.90;;;;;;4978366;28;19922;-76
2022/11/06 03:56:55;;;;;;;7.13;5.93;;;10.50;99.90;;;;;;4964345;28;20109;-77
2022/11/06 03:59:25;;;;;;;9.50;6.20;;;10.50;99.90;;;;;;4969356;28;20134;-77
2022/11/06 04:01:54;;;;;;;8.20;6.80;;;10.50;99.90;;;;;;4976975;28;20073;-77
2022/11/06 04:04:37;;;;;;;7.53;6.20;;;10.50;99.90;;;;;;4984601;28;20046;-77
2022/11/06 04:07:20;;;;;;;10.13;6.93;;;10.50;99.90;;;;;;4968243;28;20077;-77
2022/11/06 04:15:23;;;;;;;7.43;6.13;;;10.50;99.90;;;;;;4984221;28;20118;-77
2022/11/06 04:17:48;;;;;;;8.30;5.47;;;10.50;99.90;;;;;;4984277;28;20057;-77
2022/11/06 04:26:34;;;;;;;10.07;6.43;;;10.50;99.90;;;;;;4985566;28;20080;-76
2022/11/06 04:26:40;;;;;;;8.68;6.20;;;10.50;99.90;;;;;;4983187;28;20723;-76
2022/11/06 04:29:27;;;;;;;13.57;6.38;;;10.50;99.90;;;;;;4984018;28;20048;-76
2022/11/06 04:32:17;;;;;;;6.80;5.47;;;10.50;99.90;;;;;;4976079;28;20130;-77
2022/11/06 04:34:59;;;;;;;11.52;5.93;;;10.50;99.90;;;;;;4964799;28;20050;-76
2022/11/06 04:37:44;;;;;;;12.93;7.35;;;10.50;99.90;;;;;;4963382;28;20054;-77
2022/11/06 04:40:17;;;;;;;5.68;5.07;;;10.50;99.90;;;;;;4965899;28;20035;-76
2022/11/06 04:42:46;;;;;;;;;;;10.50;99.90;;;;;;4965058;28;20057;-76
2022/11/06 04:45:21;;;;;;;7.10;4.95;;;10.50;99.90;;;;;;4974818;28;19922;-76
2022/11/06 04:47:49;;;;;;;8.32;5.85;;;10.50;99.90;;;;;;4972514;28;20081;-77
2022/11/06 04:50:17;;;;;;;7.93;6.35;;;10.50;99.90;;;;;;4959173;28;20400;-76
2022/11/06 04:52:44;;;;;;;7.90;5.43;;;10.50;99.90;;;;;;4983430;28;20057;-76
2022/11/06 04:55:10;;;;;;;14.15;6.57;;;10.50;99.90;;;;;;4967519;28;20057;-76
2022/11/06 04:57:36;;;;;;;9.52;6.38;;;10.50;99.90;;;;;;4964625;28;20125;-76
2022/11/06 05:00:03;;;;;;;9.80;5.50;;;10.50;99.90;;;;;;4970732;28;20129;-76
2022/11/06 05:02:29;;;;;;;9.20;5.75;;;10.50;99.90;;;;;;4984354;28;20038;-76
2022/11/06 05:04:54;;;;;;;7.43;5.70;;;10.50;99.90;;;;;;4983302;28;20050;-76
2022/11/06 05:07:20;;;;;;;11.27;7.15;;;10.50;99.90;;;;;;4984910;28;20077;-77
2022/11/06 05:09:45;;;;;;;9.10;5.88;;;10.50;99.90;;;;;;4984378;28;20049;-76
2022/11/06 05:12:11;;;;;;;9.15;5.88;;;10.50;99.90;;;;;;4983557;28;20132;-76
2022/11/06 05:14:37;;;;;;;6.50;4.95;;;10.50;99.90;;;;;;4998320;28;20055;-77
2022/11/06 05:17:02;;;;;;;8.13;6.05;;;10.50;99.90;;;;;;4975747;28;20061;-77
2022/11/06 05:19:28;;;;;;;8.27;6.40;;;10.50;99.90;;;;;;4965828;28;20050;-77
2022/11/06 05:24:38;;;;;;;6.93;4.88;;;10.50;99.90;;;;;;4965570;28;20054;-76
2022/11/06 05:27:03;;;;;;;6.32;5.40;;;10.50;99.90;;;;;;4981754;28;20046;-76
2022/11/06 05:29:29;;;;;;;10.70;7.57;;;10.50;99.90;;;;;;4984565;28;20046;-77
2022/11/06 05:31:54;;;;;;;9.10;7.50;;;10.50;99.90;;;;;;4984330;28;20050;-76
2022/11/06 05:34:20;;;;;;;13.13;6.38;;;10.50;99.90;;;;;;4984526;28;20083;-77
2022/11/06 05:36:46;;;;;;;9.35;5.32;;;10.50;99.90;;;;;;4984876;28;20051;-78
2022/11/06 05:39:12;;;;;;;7.22;6.03;;;10.50;99.90;;;;;;4984307;28;20043;-76
2022/11/06 05:41:37;;;;;;;8.82;6.80;;;10.50;99.90;;;;;;4982288;28;20057;-76
2022/11/06 05:44:03;;;;;;;8.90;6.70;;;10.50;99.90;;;;;;4983778;28;20411;-76
2022/11/06 05:46:28;;;;;;;7.70;5.95;;;10.50;99.90;;;;;;4984380;28;20042;-77
2022/11/06 05:48:54;;;;;;;12.65;6.30;;;10.50;99.90;;;;;;4984004;28;20551;-76
2022/11/06 05:51:20;;;;;;;7.68;5.38;;;10.50;99.90;;;;;;4986871;28;20058;-77
2022/11/06 05:53:46;;;;;;;10.27;6.78;;;10.50;99.90;;;;;;4988500;28;20042;-76
2022/11/06 05:56:11;;;;;;;9.48;5.28;;;10.50;99.90;;;;;;4986437;28;20038;-76
2022/11/06 05:58:37;;;;;;;9.50;6.63;;;10.50;99.90;;;;;;4988382;28;20096;-76
2022/11/06 06:01:03;;;;;;;11.40;7.75;;;10.50;99.90;;;;;;4988050;28;20042;-76
2022/11/06 06:03:28;;;;;;;8.23;7.00;;;10.50;99.90;;;;;;4988116;28;20039;-76
2022/11/06 06:05:54;;;;;;;10.02;6.35;;;10.50;99.90;;;;;;4987845;28;20433;-76
2022/11/06 06:08:19;;;;;;;10.15;7.43;;;10.50;99.90;;;;;;4988106;28;20121;-77
2022/11/06 06:10:47;;;;;;;9.57;6.68;;;10.50;99.90;;;;;;4987665;28;20088;-76
2022/11/06 06:13:13;;;;;;;8.63;6.28;;;10.50;99.90;;;;;;4987981;28;20050;-77
2022/11/06 06:15:40;;;;;;;10.90;6.65;;;10.50;99.90;;;;;;4986179;28;20046;-76
2022/11/06 06:18:07;;;;;;;8.75;6.45;;;10.50;99.90;;;;;;4986402;28;20124;-76
2022/11/06 06:20:33;;;;;;;10.07;6.53;;;10.50;99.90;;;;;;4987643;28;20047;-76
2022/11/06 06:22:59;;;;;;;8.00;6.15;;;10.50;99.90;;;;;;4987567;28;20050;-75
2022/11/06 06:25:25;;;;;;;6.40;5.32;;;10.50;99.90;;;;;;4987155;28;20626;-76
2022/11/06 06:27:51;;;;;;;10.57;6.60;;;10.50;99.90;;;;;;4987478;28;20042;-76
2022/11/06 06:30:18;;;;;;;6.68;5.97;;;10.50;99.90;;;;;;4988106;28;20057;-76
2022/11/06 06:32:43;;;;;;;9.98;6.80;;;10.40;99.90;;;;;;4987609;28;20108;-76
2022/11/06 06:35:09;;;;;;;11.55;6.63;;;10.40;99.90;;;;;;4987158;28;21036;-75
2022/11/06 06:37:35;;;;;;;9.57;6.57;;;10.40;99.90;;;;;;4986324;28;20046;-76
2022/11/06 06:40:00;;;;;;;9.10;7.43;;;10.40;99.90;;;;;;4985979;28;20039;-75
2022/11/06 06:42:29;;;;;;;9.75;7.50;;;10.40;99.90;;;;;;4985785;28;20046;-76
2022/11/06 06:44:55;;;;;;;14.30;8.75;;;10.40;99.90;;;;;;4987726;28;20039;-76
2022/11/06 06:47:21;;;;;;;13.93;8.50;;;10.30;99.90;;;;;;4987444;28;20042;-76
2022/11/06 06:49:46;;;;;;;12.80;7.78;;;10.30;99.90;;;;;;4987411;28;20074;-76
2022/11/06 06:52:12;;;;;;;12.75;7.40;;;10.40;99.90;;;;;;4985545;28;20046;-76
2022/11/06 06:54:38;;;;;;;12.23;8.75;;;10.40;99.90;;;;;;4985536;28;20532;-76
2022/11/06 06:57:06;;;;;;;15.57;7.40;;;10.30;99.90;;;;;;4984989;28;20046;-76
2022/11/06 06:59:31;;;;;;;10.27;7.88;;;10.30;99.90;;;;;;4987083;28;20070;-76
2022/11/06 07:01:57;;;;;;;9.52;6.95;;;10.30;99.90;;;;;;4984996;28;20057;-76
2022/11/06 07:04:22;;;;;;;10.48;7.93;;;10.30;99.90;;;;;;4985376;28;20045;-77
2022/11/06 07:06:48;;;;;;;10.93;7.38;;;10.30;99.90;;;;;;4986195;28;20127;-76
2022/11/06 07:09:14;;;;;;;8.88;6.20;;;10.30;99.90;;;;;;4987245;28;20039;-76
2022/11/06 07:11:39;;;;;;;12.98;6.65;;;10.30;99.90;;;;;;4984632;28;20059;-76
2022/11/06 07:14:05;;;;;;;9.18;6.07;;;10.30;99.90;;;;;;4985799;28;20587;-76
2022/11/06 07:16:31;;;;;;;9.73;7.00;;;10.20;99.90;;;;;;4987021;28;20046;-76
2022/11/06 07:18:57;;;;;;;6.53;5.15;;;10.30;99.90;;;;;;4985927;28;20047;-76
2022/11/06 07:21:23;;;;;;;11.60;6.40;;;10.30;99.90;;;;;;4985505;28;20050;-76
2022/11/06 07:23:49;;;;;;;8.90;5.32;;;10.30;99.90;;;;;;4987055;28;20062;-77
2022/11/06 07:26:15;;;;;;;7.18;6.15;;;10.30;99.90;;;;;;4978237;28;20070;-76
2022/11/06 07:28:41;;;;;;;9.18;5.32;;;10.30;99.90;;;;;;4985064;28;20088;-76
2022/11/06 07:31:08;;;;;;;9.90;6.03;;;10.30;99.90;;;;;;4984405;28;20042;-76
2022/11/06 07:33:34;;;;;;;9.20;7.22;;;10.20;99.90;;;;;;4984509;28;20129;-76
2022/11/06 07:36:08;;;;;;;6.03;5.07;;;10.20;99.90;;;;;;4967757;28;20041;-76
2022/11/06 07:38:35;;;;;;;11.45;6.68;;;10.20;99.90;;;;;;4985001;28;20049;-77
2022/11/06 07:41:06;;;;;;;18.60;5.97;;;10.20;99.90;;;;;;4984671;28;20489;-76
2022/11/06 07:43:32;;;;;;;20.33;5.82;;;10.20;99.90;;;;;;4985281;28;20030;-76
2022/11/06 07:46:02;;;;;;;10.45;5.15;;;10.20;99.90;;;;;;4985322;28;20042;-76
2022/11/06 07:48:29;;;;;;;6.63;5.25;;;10.20;99.90;;;;;;4984240;28;20047;-76
2022/11/06 07:50:55;;;;;;;9.00;5.20;;;10.30;99.90;;;;;;4984716;28;20054;-76
2022/11/06 07:53:21;;;;;;;12.82;4.72;;;10.20;99.90;;;;;;4984394;28;20046;-77
2022/11/06 07:55:49;;;;;;;9.50;4.53;;;10.30;99.90;;;;;;4983894;28;20034;-76
2022/11/06 07:58:15;;;;;;;12.93;4.35;;;10.30;99.90;;;;;;4984904;28;20128;-76
2022/11/06 08:00:48;;;;;;;16.02;4.45;;;10.30;99.90;;;;;;4983944;28;20165;-76
2022/11/06 08:03:14;;;;;;;6.25;4.55;;;10.30;99.90;;;;;;4971608;28;20054;-76
2022/11/06 08:05:40;;;;;;;5.32;4.03;;;10.20;99.90;;;;;;4984192;28;20057;-76
2022/11/06 08:08:05;;;;;;;7.57;4.72;;;10.30;99.90;;;;;;4984371;28;20054;-76
2022/11/06 08:10:31;;;;;;;6.22;3.70;;;10.30;99.90;;;;;;4984844;28;20120;-76
2022/11/06 08:12:58;;;;;;;9.73;4.43;;;10.20;99.90;;;;;;4983622;28;20456;-76
2022/11/06 08:15:24;;;;;;;8.82;4.95;;;10.30;99.90;;;;;;4984454;28;20055;-76
2022/11/06 08:17:50;;;;;;;6.93;4.55;;;10.30;99.90;;;;;;4983955;28;20421;-78
2022/11/06 08:20:15;;;;;;;10.07;3.13;;;10.30;99.90;;;;;;4986054;28;20045;-76
2022/11/06 08:22:41;;;;;;;6.30;3.38;;;10.30;99.90;;;;;;4985757;28;20093;-76
2022/11/06 08:25:07;;;;;;;7.72;3.92;;;10.30;99.90;;;;;;4984255;28;20042;-77
2022/11/06 08:27:33;;;;;;;5.93;3.92;;;10.30;99.90;;;;;;4985649;28;20038;-76
2022/11/06 08:29:58;;;;;;;6.65;4.13;;;10.30;99.90;;;;;;4983463;28;20061;-77
2022/11/06 08:32:24;;;;;;;6.38;4.43;;;10.30;99.90;;;;;;4985328;28;20408;-76
2022/11/06 08:34:49;;;;;;;6.10;4.47;;;10.30;99.90;;;;;;4983933;28;20060;-79
2022/11/06 08:37:15;;;;;;;4.32;3.92;;;10.30;99.90;;;;;;4985542;28;20112;-77
2022/11/06 08:39:40;;;;;;;7.00;3.85;;;10.30;99.90;;;;;;4983956;28;20057;-76
2022/11/06 08:42:06;;;;;;;6.13;4.18;;;10.30;99.90;;;;;;4981853;28;20040;-77
2022/11/06 08:44:31;;;;;;;7.35;3.92;;;10.30;99.90;;;;;;4983338;28;20077;-77
2022/11/06 08:46:57;;;;;;;5.72;2.90;;;10.40;99.90;;;;;;4984096;28;20073;-76
2022/11/06 08:49:23;;;;;;;5.55;3.50;;;10.40;99.90;;;;;;4983881;28;20558;-76
2022/11/06 08:51:48;;;;;;;7.22;3.90;;;10.40;99.90;;;;;;4973632;28;20042;-77
2022/11/06 08:54:14;;;;;;;6.75;3.95;;;10.40;99.90;;;;;;4984523;28;20053;-77
2022/11/06 08:56:39;;;;;;;9.50;4.40;;;10.40;99.90;;;;;;4984000;28;20064;-76
2022/11/06 08:59:05;;;;;;;5.28;3.72;;;10.40;99.90;;;;;;4967286;28;20477;-76
2022/11/06 09:01:30;;;;;;;7.13;3.72;;;10.40;99.90;;;;;;4983318;28;20046;-77
2022/11/06 09:03:56;;;;;;;5.15;4.32;;;10.40;99.90;;;;;;4983873;28;20093;-76
2022/11/06 09:06:22;;;;;;;4.80;3.42;;;10.40;99.90;;;;;;4984381;28;20121;-77
2022/11/06 09:08:47;;;;;;;10.10;3.47;;;10.40;99.90;;;;;;4984312;28;20038;-76
2022/11/06 09:11:13;;;;;;;10.30;4.40;;;10.40;99.90;;;;;;4982173;28;20058;-76
2022/11/06 09:13:41;;;;;;;5.18;3.90;;;10.40;99.90;;;;;;4984887;28;20055;-77
2022/11/06 09:16:07;;;;;;;4.47;3.45;;;10.40;99.90;;;;;;4983352;28;20065;-76
2022/11/06 09:18:32;;;;;;;5.53;4.13;;;10.40;99.90;;;;;;4983064;28;20034;-76
2022/11/06 09:20:58;;;;;;;5.65;4.30;;;10.40;99.90;;;;;;4972316;28;20042;-76
2022/11/06 09:23:24;;;;;;;16.48;4.40;;;10.40;99.90;;;;;;4985072;28;20417;-76
2022/11/06 09:25:49;;;;;;;4.78;3.80;;;10.40;99.90;;;;;;4977641;28;20314;-79
2022/11/06 09:28:15;;;;;;;8.25;3.28;;;10.40;99.90;;;;;;4977634;28;20096;-76
2022/11/06 09:30:41;;;;;;;8.02;3.53;;;10.40;99.90;;;;;;4987033;28;20081;-77
2022/11/06 09:33:07;;;;;;;6.85;3.53;;;10.40;99.90;;;;;;4987873;28;20046;-76
2022/11/06 09:35:34;;;;;;;6.72;4.13;;;10.40;99.90;;;;;;4981637;28;20103;-77
2022/11/06 09:38:02;;;;;;;6.25;4.30;;;10.40;99.90;;;;;;4969580;28;20074;-78
2022/11/06 09:40:32;;;;;;;6.13;3.83;;;10.30;99.90;;;;;;4988164;28;20057;-78
2022/11/06 09:43:25;;;;;;;6.85;3.95;;;10.30;99.90;;;;;;4987041;28;20042;-77
2022/11/06 09:45:51;;;;;;;5.72;3.92;;;10.30;99.90;;;;;;4979917;28;20046;-75
2022/11/06 09:48:53;;;;;;;3.53;2.67;;;10.30;99.90;;;;;;4992279;28;20129;-75
2022/11/06 09:51:35;;;;;;;5.82;3.47;;;10.30;99.90;;;;;;4967129;28;20116;-76
2022/11/06 09:54:23;;;;;;;6.80;4.70;;;10.30;99.90;;;;;;4985614;28;20049;-75
2022/11/06 09:56:54;;;;;;;6.05;3.67;;;10.30;99.90;;;;;;4986534;28;20046;-75
2022/11/06 09:59:20;;;;;;;5.43;3.65;;;10.30;99.90;;;;;;4988635;28;20034;-77
2022/11/06 10:01:50;;;;;;;5.90;3.97;;;10.30;99.90;;;;;;4986223;28;20481;-75
2022/11/06 10:05:02;;;;;;;5.43;3.42;;;10.30;99.90;;;;;;4987227;28;20043;-76
2022/11/06 10:07:34;;;;;;;6.68;3.08;;;10.30;99.90;;;;;;4973599;28;20416;-77
2022/11/06 10:10:02;;;;;;;9.07;3.67;;;10.40;99.90;;;;;;4982733;28;20493;-77
2022/11/06 10:12:47;;;;;;;4.65;3.63;;;10.30;99.90;;;;;;4982245;28;20472;-77
2022/11/06 10:15:41;;;;;;;5.25;3.35;;;10.40;99.90;;;;;;4987318;28;20050;-77
2022/11/06 10:18:14;;;;;;;12.32;4.18;;;10.40;99.90;;;;;;4980146;28;20051;-76
2022/11/06 10:20:55;;;;;;;7.20;3.58;;;10.30;99.90;;;;;;4975479;28;20282;-77
2022/11/06 10:23:56;;;;;;;7.60;3.33;;;10.40;99.90;;;;;;4983146;28;20066;-77
2022/11/06 10:26:28;;;;;;;4.47;3.08;;;10.40;99.90;;;;;;4974475;28;20505;-77
2022/11/06 10:29:18;;;;;;;4.00;3.30;;;10.40;99.90;;;;;;4968965;28;20105;-77
2022/11/06 10:32:00;;;;;;;6.22;3.08;;;10.40;99.90;;;;;;4982878;28;20053;-77
2022/11/06 10:34:29;;;;;;;;;;;10.40;99.90;;;;;;4961301;28;20046;-75
2022/11/06 10:37:19;;;;;;;6.32;3.95;;;10.50;99.90;;;;;;4984937;28;19933;-76
2022/11/06 10:39:45;;;;;;;6.22;3.35;;;10.40;99.90;;;;;;4986723;28;20048;-78
2022/11/06 10:42:45;;;;;;;7.13;3.78;;;10.40;99.90;;;;;;4985500;28;20125;-79
2022/11/06 10:45:15;;;;;;;5.40;3.22;;;10.40;99.90;;;;;;4957243;28;20066;-76
2022/11/06 10:47:47;;;;;;;4.28;2.80;;;10.40;99.90;;;;;;4987006;28;20569;-76
2022/11/06 10:50:15;;;;;;;3.17;2.58;;;10.40;99.90;;;;;;4985617;28;20060;-77
2022/11/06 10:53:04;;;;;;;6.95;3.53;;;10.40;99.90;;;;;;4987215;28;20042;-76
2022/11/06 10:55:51;;;;;;;3.10;2.78;;;10.50;99.90;;;;;;4984505;28;20109;-75
2022/11/06 10:58:20;;;;;;;5.25;3.15;;;10.50;99.90;;;;;;4983249;28;20433;-76
2022/11/06 11:00:48;;;;;;;6.38;3.58;;;10.50;99.90;;;;;;4986352;28;20428;-75
2022/11/06 11:03:29;;;;;;;6.03;4.35;;;10.50;99.90;;;;;;4985749;28;20062;-76
2022/11/06 11:05:55;;;;;;;4.43;2.90;;;10.50;99.90;;;;;;4980096;28;20045;-75
2022/11/06 11:08:29;;;;;;;8.90;3.05;;;10.50;99.90;;;;;;4984911;28;20042;-78
2022/11/06 11:11:01;;;;;;;6.75;3.28;;;10.50;99.90;;;;;;4982785;28;20499;-76
2022/11/06 11:13:27;;;;;;;7.40;3.35;;;10.50;99.90;;;;;;4985083;28;20054;-76
2022/11/06 11:15:52;;;;;;;6.05;3.58;;;10.60;99.90;;;;;;4983335;28;20121;-75
2022/11/06 11:18:30;;;;;;;4.10;3.28;;;10.60;99.90;;;;;;4978825;28;20496;-74
2022/11/06 11:21:17;;;;;;;4.60;3.25;;;10.60;99.90;;;;;;4975754;28;20167;-76
2022/11/06 11:23:44;;;;;;;4.68;3.65;;;10.70;99.90;;;;;;4984733;28;20057;-76
2022/11/06 11:26:18;;;;;;;4.43;3.78;;;10.70;99.90;;;;;;4984431;28;20595;-76
2022/11/06 11:28:50;;;;;;;6.32;4.05;;;10.70;99.90;;;;;;4984197;28;20655;-77
2022/11/06 11:31:17;;;;;;;6.63;4.03;;;10.70;99.90;;;;;;4968530;28;20564;-74
2022/11/06 11:33:52;;;;;;;3.90;3.28;;;10.70;99.90;;;;;;4986223;28;20042;-74
2022/11/06 11:36:17;;;;;;;6.13;3.25;;;10.70;99.90;;;;;;4974927;28;20046;-76
2022/11/06 11:38:43;;;;;;;5.75;3.70;;;10.70;99.90;;;;;;4979671;28;20035;-75
2022/11/06 11:41:14;;;;;;;6.78;3.58;;;10.70;99.90;;;;;;4977803;28;20038;-75
2022/11/06 11:43:41;;;;;;;3.95;3.30;;;10.70;99.90;;;;;;4986246;28;20050;-74
2022/11/06 11:46:09;;;;;;;7.30;3.03;;;10.80;99.90;;;;;;4984351;28;20030;-74
2022/11/06 11:48:44;;;;;;;5.28;4.25;;;10.80;99.90;;;;;;4983210;28;20058;-75
2022/11/06 11:51:29;;;;;;;4.65;3.22;;;10.80;99.90;;;;;;4983433;28;20573;-76
2022/11/06 11:54:04;;;;;;;8.48;4.05;;;10.80;99.90;;;;;;4979344;28;20042;-76
2022/11/06 11:56:30;;;;;;;6.93;4.43;;;10.90;99.90;;;;;;4981645;28;20053;-75
2022/11/06 11:58:59;;;;;;;6.13;3.53;;;10.90;99.90;;;;;;4976648;28;20031;-78
2022/11/06 12:01:39;;;;;;;4.47;4.07;;;10.90;99.90;;;;;;4978104;28;20058;-75
2022/11/06 12:04:12;;;;;;;4.40;3.45;;;11.00;99.90;;;;;;4983755;28;20085;-75
2022/11/06 12:06:53;;;;;;;10.35;4.72;;;11.00;99.90;;;;;;4981956;28;20042;-75
2022/11/06 12:09:19;;;;;;;4.00;3.15;;;11.10;99.90;;;;;;4985059;28;20088;-75
2022/11/06 12:11:46;;;;;;;3.80;2.85;;;11.10;99.90;;;;;;4984532;28;20141;-74
2022/11/06 12:14:29;;;;;;;8.75;4.30;;;11.10;99.90;;;;;;4984239;28;20472;-74
2022/11/06 12:17:01;;;;;;;8.85;3.03;;;11.10;99.90;;;;;;4975329;28;20054;-74
2022/11/06 12:19:30;;;;;;;9.82;3.33;;;11.10;99.90;;;;;;4968019;28;20058;-74
2022/11/06 12:22:01;;;;;;;10.70;3.58;;;11.20;99.90;;;;;;4983346;28;20116;-74
2022/11/06 12:24:41;;;;;;;4.80;2.88;;;11.20;99.90;;;;;;4983816;28;20078;-74
2022/11/06 12:27:20;;;;;;;6.38;3.13;;;11.10;99.90;;;;;;4973692;28;20101;-74
2022/11/06 12:29:50;;;;;;;7.47;2.85;;;11.20;99.90;;;;;;4983757;28;20093;-76
2022/11/06 12:32:24;;;;;;;4.28;2.65;;;11.30;99.90;;;;;;4999924;28;20134;-75
2022/11/06 12:35:00;;;;;;;4.32;2.45;;;11.30;99.90;;;;;;4964154;28;20046;-76
2022/11/06 12:37:55;;;;;;;6.55;2.75;;;11.30;99.90;;;;;;4977324;28;20137;-75
2022/11/06 12:40:27;;;;;;;2.17;1.83;;;11.30;99.90;;;;;;4982556;28;20042;-74
2022/11/06 12:43:08;;;;;;;3.10;2.60;;;11.30;99.90;;;;;;4983437;28;20080;-75
2022/11/06 12:45:46;;;;;;;13.10;2.05;;;11.30;99.90;;;;;;4983482;28;20433;-75
2022/11/06 12:48:24;;;;;;;8.73;2.05;;;11.30;99.90;;;;;;4971796;28;20047;-74
2022/11/06 12:51:07;;;;;;;5.65;2.28;;;11.30;99.90;;;;;;4981665;28;20058;-77
2022/11/06 12:53:55;;;;;;;5.22;2.28;;;11.30;99.90;;;;;;4986052;28;20042;-82
2022/11/06 12:56:48;;;;;;;6.75;2.65;;;11.30;99.90;;;;;;4983388;28;20038;-78
2022/11/06 12:59:40;;;;;;;4.15;2.22;;;11.30;99.90;;;;;;4995042;28;20569;-77
2022/11/06 13:02:15;;;;;;;3.13;1.80;;;11.30;99.90;;;;;;4985628;28;20042;-83
2022/11/06 13:04:54;;;;;;;2.45;2.17;;;11.30;99.90;;;;;;4985610;28;20050;-83
2022/11/06 13:07:58;;;;;;;3.08;1.98;;;11.30;99.90;;;;;;4982575;28;20047;-80
2022/11/06 13:10:43;;;;;;;2.95;1.63;;;11.30;99.90;;;;;;4984261;28;20142;-81
2022/11/06 13:13:30;;;;;;;2.15;1.88;;;11.30;99.90;;;;;;4985511;28;20054;-78
2022/11/06 13:16:17;;;;;;;3.45;2.42;;;11.30;99.90;;;;;;4983455;28;20138;-78
2022/11/06 13:18:58;;;;;;;6.10;2.60;;;11.30;99.90;;;;;;4984819;28;20129;-79
2022/11/06 13:21:50;;;;;;;4.10;2.17;;;11.20;99.90;;;;;;4985279;28;20397;-81